createdAt,value
2018-10-07T00:02:23.961Z,7.70
2018-10-07T00:04:52.484Z,8.07
2018-10-07T00:07:21.099Z,7.17
2018-10-07T00:09:49.613Z,7.50
2018-10-07T00:12:18.170Z,7.87
2018-10-07T00:14:46.614Z,8.53
2018-10-07T00:17:15.113Z,8.00
2018-10-07T00:19:43.619Z,7.73
2018-10-07T00:22:12.186Z,7.97
2018-10-07T00:24:40.781Z,7.80
2018-10-07T00:27:10.347Z,7.83
2018-10-07T00:29:38.770Z,7.67
2018-10-07T00:32:12.861Z,7.60
2018-10-07T00:34:41.343Z,7.77
2018-10-07T00:37:09.983Z,8.03
2018-10-07T00:39:38.435Z,7.80
2018-10-07T00:42:07.122Z,7.70
2018-10-07T00:44:35.780Z,8.37
2018-10-07T00:47:04.220Z,7.83
2018-10-07T00:49:32.895Z,8.70
2018-10-07T00:52:01.475Z,8.80
2018-10-07T00:54:29.966Z,8.30
2018-10-07T00:56:58.469Z,8.33
2018-10-07T00:59:26.946Z,8.27
2018-10-07T01:01:55.399Z,8.90
2018-10-07T01:04:23.852Z,8.57
2018-10-07T01:06:52.348Z,8.63
2018-10-07T01:09:20.911Z,8.47
2018-10-07T01:11:49.368Z,8.47
2018-10-07T01:14:17.800Z,8.80
2018-10-07T01:16:46.386Z,9.37
2018-10-07T01:19:14.864Z,8.77
2018-10-07T01:21:43.397Z,8.13
2018-10-07T01:24:11.829Z,8.70
2018-10-07T01:26:40.367Z,9.97
2018-10-07T01:29:08.920Z,9.40
2018-10-07T01:31:37.385Z,9.17
2018-10-07T01:34:05.832Z,9.77
2018-10-07T01:36:35.749Z,10.50
2018-10-07T01:39:08.203Z,9.77
2018-10-07T01:41:36.782Z,10.60
2018-10-07T01:44:05.323Z,10.77
2018-10-07T01:46:33.797Z,11.83
2018-10-07T01:49:02.271Z,11.63
2018-10-07T01:51:30.760Z,13.87
2018-10-07T01:53:59.211Z,14.87
2018-10-07T01:56:27.724Z,14.63
2018-10-07T01:58:56.189Z,15.33
2018-10-07T02:01:24.698Z,16.30
2018-10-07T02:03:53.153Z,18.53
2018-10-07T02:06:21.603Z,19.67
2018-10-07T02:08:50.139Z,21.20
2018-10-07T02:11:18.850Z,20.67
2018-10-07T02:13:47.438Z,22.03
2018-10-07T02:16:16.621Z,22.40
2018-10-07T02:18:45.892Z,23.33
2018-10-07T02:21:15.127Z,24.80
2018-10-07T02:23:43.806Z,24.53
2018-10-07T02:26:12.301Z,25.03
2018-10-07T02:28:40.985Z,25.83
2018-10-07T02:31:09.988Z,26.73
2018-10-07T02:33:39.122Z,27.70
2018-10-07T02:36:07.613Z,27.20
2018-10-07T02:38:36.483Z,28.63
2018-10-07T02:41:05.849Z,28.67
2018-10-07T02:43:34.607Z,28.63
2018-10-07T02:46:03.377Z,30.57
2018-10-07T02:48:32.273Z,35.90
2018-10-07T02:51:00.899Z,37.40
2018-10-07T02:53:29.485Z,36.80
2018-10-07T02:55:58.014Z,37.13
2018-10-07T02:58:27.203Z,40.60
2018-10-07T03:00:55.694Z,41.63
2018-10-07T03:03:24.144Z,42.80
2018-10-07T03:05:52.634Z,43.60
2018-10-07T03:08:21.077Z,43.67
2018-10-07T03:10:49.529Z,46.73
2018-10-07T03:13:18.115Z,46.73
2018-10-07T03:15:46.539Z,46.57
2018-10-07T03:18:15.056Z,47.83
2018-10-07T03:20:43.498Z,47.53
2018-10-07T03:23:12.036Z,47.10
2018-10-07T03:25:40.514Z,45.67
2018-10-07T03:28:08.995Z,44.53
2018-10-07T03:30:37.513Z,43.27
2018-10-07T03:33:06.159Z,44.60
2018-10-07T03:35:34.603Z,41.40
2018-10-07T03:38:03.164Z,42.40
2018-10-07T03:40:31.733Z,39.00
2018-10-07T03:43:00.191Z,36.73
2018-10-07T03:45:28.726Z,38.23
2018-10-07T03:47:57.200Z,35.67
2018-10-07T03:50:25.836Z,34.93
2018-10-07T03:52:54.396Z,34.57
2018-10-07T03:55:25.948Z,34.10
2018-10-07T03:57:54.473Z,34.93
2018-10-07T04:00:23.184Z,35.00
2018-10-07T04:02:51.695Z,34.87
2018-10-07T04:05:20.765Z,31.60
2018-10-07T04:07:49.381Z,26.57
2018-10-07T04:10:17.819Z,22.67
2018-10-07T04:12:46.266Z,22.87
2018-10-07T04:15:14.780Z,18.03
2018-10-07T04:17:43.337Z,16.27
2018-10-07T04:20:11.823Z,15.33
2018-10-07T04:22:40.299Z,13.23
2018-10-07T04:25:08.868Z,10.57
2018-10-07T04:27:37.514Z,10.10
2018-10-07T04:30:06.061Z,9.97
2018-10-07T04:32:35.129Z,8.67
2018-10-07T04:35:03.744Z,8.07
2018-10-07T04:37:32.213Z,7.53
2018-10-07T04:40:00.796Z,7.40
2018-10-07T04:42:29.195Z,7.10
2018-10-07T04:44:57.683Z,6.30
2018-10-07T04:47:26.174Z,5.83
2018-10-07T04:49:54.683Z,5.33
2018-10-07T04:52:23.119Z,5.13
2018-10-07T04:54:51.605Z,4.47
2018-10-07T04:57:20.133Z,4.40
2018-10-07T04:59:48.561Z,3.70
2018-10-07T05:02:17.088Z,3.40
2018-10-07T05:04:45.556Z,3.57
2018-10-07T05:07:14.031Z,3.10
2018-10-07T05:09:42.524Z,3.37
2018-10-07T05:12:11.035Z,3.00
2018-10-07T05:14:40.380Z,3.50
2018-10-07T05:17:09.842Z,2.70
2018-10-07T05:19:38.355Z,3.33
2018-10-07T05:22:06.910Z,2.73
2018-10-07T05:24:35.497Z,3.57
2018-10-07T05:27:03.952Z,3.40
2018-10-07T05:29:32.404Z,3.60
2018-10-07T05:32:00.844Z,3.57
2018-10-07T05:34:29.322Z,2.80
2018-10-07T05:36:57.803Z,2.40
2018-10-07T05:39:26.275Z,2.20
2018-10-07T05:41:54.700Z,2.20
2018-10-07T05:44:23.193Z,1.97
2018-10-07T05:46:51.715Z,2.17
2018-10-07T05:49:20.152Z,1.77
2018-10-07T05:51:48.601Z,1.60
2018-10-07T05:54:17.043Z,1.93
2018-10-07T05:56:45.508Z,2.13
2018-10-07T05:59:14.327Z,1.20
2018-10-07T06:01:43.960Z,1.20
2018-10-07T06:05:16.358Z,1.13
2018-10-07T06:07:45.048Z,0.80
2018-10-07T06:10:13.543Z,1.20
2018-10-07T06:12:42.067Z,1.93
2018-10-07T06:15:46.088Z,1.00
2018-10-07T06:18:14.575Z,0.87
2018-10-07T06:20:43.051Z,0.80
2018-10-07T06:23:11.651Z,0.80
2018-10-07T06:25:40.124Z,0.80
2018-10-07T06:28:08.648Z,1.03
2018-10-07T06:30:37.168Z,1.00
2018-10-07T06:33:05.668Z,1.10
2018-10-07T06:35:34.159Z,0.60
2018-10-07T06:38:02.635Z,0.60
2018-10-07T06:40:31.084Z,0.63
2018-10-07T06:42:59.612Z,0.67
2018-10-07T06:45:28.264Z,0.90
2018-10-07T06:47:56.760Z,0.57
2018-10-07T06:50:25.212Z,0.93
2018-10-07T06:52:53.713Z,1.03
2018-10-07T06:55:22.330Z,1.00
2018-10-07T06:57:50.769Z,1.33
2018-10-07T07:00:19.256Z,1.40
2018-10-07T07:02:47.752Z,1.10
2018-10-07T07:05:16.306Z,1.00
2018-10-07T07:07:44.817Z,2.07
2018-10-07T07:10:13.275Z,1.60
2018-10-07T07:12:41.862Z,1.50
2018-10-07T07:15:10.307Z,1.00
2018-10-07T07:17:38.833Z,0.97
2018-10-07T07:20:07.475Z,0.90
2018-10-07T07:22:36.092Z,0.83
2018-10-07T07:25:04.680Z,1.20
2018-10-07T07:27:33.167Z,0.90
2018-10-07T07:30:01.628Z,0.70
2018-10-07T07:32:30.155Z,0.70
2018-10-07T07:34:58.637Z,0.60
2018-10-07T07:37:27.134Z,0.90
2018-10-07T07:39:55.597Z,0.70
2018-10-07T07:42:24.149Z,0.50
2018-10-07T07:44:52.641Z,0.70
2018-10-07T07:47:21.237Z,0.70
2018-10-07T07:49:49.779Z,0.67
2018-10-07T07:52:18.418Z,0.80
2018-10-07T07:54:46.904Z,0.70
2018-10-07T07:57:15.412Z,0.90
2018-10-07T07:59:43.984Z,0.90
2018-10-07T08:02:12.473Z,0.60
2018-10-07T08:04:40.916Z,0.40
2018-10-07T08:07:09.501Z,0.50
2018-10-07T08:09:37.989Z,0.80
2018-10-07T08:12:06.499Z,0.80
2018-10-07T08:14:34.944Z,0.80
2018-10-07T08:17:03.534Z,0.70
2018-10-07T08:19:31.998Z,1.00
2018-10-07T08:22:00.464Z,0.60
2018-10-07T08:24:28.951Z,0.60
2018-10-07T08:26:57.507Z,0.60
2018-10-07T08:29:26.118Z,0.60
2018-10-07T08:31:54.567Z,0.63
2018-10-07T08:34:23.106Z,0.57
2018-10-07T08:36:51.607Z,0.50
2018-10-07T08:39:20.074Z,0.67
2018-10-07T08:41:48.515Z,0.77
2018-10-07T08:44:17.036Z,0.70
2018-10-07T08:46:45.542Z,0.60
2018-10-07T08:49:14.108Z,0.73
2018-10-07T08:51:42.536Z,0.70
2018-10-07T08:54:11.110Z,1.40
2018-10-07T08:56:39.681Z,2.03
2018-10-07T08:59:08.221Z,1.03
2018-10-07T09:01:36.684Z,0.60
2018-10-07T09:04:05.940Z,0.87
2018-10-07T09:06:34.526Z,0.70
2018-10-07T09:09:03.172Z,0.53
2018-10-07T09:11:31.812Z,0.80
2018-10-07T09:14:00.258Z,0.80
2018-10-07T09:16:28.876Z,0.50
2018-10-07T09:18:57.334Z,0.60
2018-10-07T09:21:26.766Z,0.70
2018-10-07T09:23:55.248Z,0.97
2018-10-07T09:26:23.808Z,0.80
2018-10-07T09:28:52.358Z,0.50
2018-10-07T09:31:20.991Z,0.60
2018-10-07T09:33:49.418Z,0.70
2018-10-07T09:36:17.989Z,0.67
2018-10-07T09:38:46.468Z,0.60
2018-10-07T09:41:14.922Z,1.00
2018-10-07T09:43:43.410Z,0.43
2018-10-07T09:46:12.028Z,0.80
2018-10-07T09:48:40.766Z,0.53
2018-10-07T09:51:09.242Z,1.07
2018-10-07T09:53:37.708Z,0.87
2018-10-07T09:56:08.301Z,0.67
2018-10-07T09:58:36.905Z,0.80
2018-10-07T10:01:05.599Z,0.70
2018-10-07T10:03:34.473Z,0.73
2018-10-07T10:06:03.086Z,0.63
2018-10-07T10:08:32.074Z,0.50
2018-10-07T10:11:00.586Z,0.60
2018-10-07T10:13:29.118Z,0.83
2018-10-07T10:15:57.618Z,1.50
2018-10-07T10:19:04.395Z,0.90
2018-10-07T10:21:37.085Z,1.00
2018-10-07T10:24:27.363Z,0.93
2018-10-07T10:28:08.655Z,0.73
2018-10-07T10:30:49.980Z,0.97
2018-10-07T10:33:25.589Z,0.80
2018-10-07T10:36:01.593Z,0.80
2018-10-07T10:39:13.040Z,0.87
2018-10-07T10:41:50.785Z,0.90
2018-10-07T10:44:23.280Z,0.70
2018-10-07T10:47:01.875Z,0.70
2018-10-07T10:49:37.741Z,0.60
2018-10-07T10:52:33.055Z,0.80
2018-10-07T10:55:13.774Z,0.87
2018-10-07T10:57:44.130Z,0.93
2018-10-07T11:00:16.752Z,0.90
2018-10-07T11:03:28.332Z,0.83
2018-10-07T11:06:42.553Z,0.83
2018-10-07T11:09:14.326Z,0.83
2018-10-07T11:11:56.863Z,0.60
2018-10-07T11:14:35.077Z,0.70
2018-10-07T11:17:16.580Z,0.80
2018-10-07T11:19:50.808Z,0.80
2018-10-07T11:24:38.086Z,0.77
2018-10-07T11:28:16.445Z,0.70
2018-10-07T11:30:55.692Z,0.70
2018-10-07T11:34:03.662Z,0.73
2018-10-07T11:36:42.444Z,0.93
2018-10-07T11:41:19.636Z,0.90
2018-10-07T11:43:56.059Z,0.80
2018-10-07T11:47:01.072Z,0.77
2018-10-07T11:49:42.586Z,0.93
2018-10-07T11:52:21.382Z,0.77
2018-10-07T11:54:57.872Z,0.60
2018-10-07T11:57:26.948Z,0.70
2018-10-07T11:59:55.757Z,0.77
2018-10-07T12:02:24.596Z,0.60
2018-10-07T12:04:53.512Z,1.17
2018-10-07T12:07:22.377Z,0.60
2018-10-07T12:09:50.918Z,0.90
2018-10-07T12:12:19.418Z,0.80
2018-10-07T12:14:48.111Z,0.80
2018-10-07T12:17:16.612Z,0.70
2018-10-07T12:19:45.093Z,0.97
2018-10-07T12:22:13.686Z,1.20
2018-10-07T12:24:42.228Z,1.10
2018-10-07T12:27:11.428Z,0.90
2018-10-07T12:29:40.002Z,0.93
2018-10-07T12:32:08.874Z,0.80
2018-10-07T12:34:37.324Z,0.80
2018-10-07T12:37:05.850Z,0.67
2018-10-07T12:39:34.652Z,0.70
2018-10-07T12:42:03.264Z,0.60
2018-10-07T12:44:31.753Z,0.93
2018-10-07T12:47:00.382Z,0.80
2018-10-07T12:49:29.022Z,0.67
2018-10-07T12:51:57.509Z,0.70
2018-10-07T12:54:26.068Z,0.50
2018-10-07T12:56:54.583Z,0.73
2018-10-07T12:59:23.069Z,0.63
2018-10-07T13:01:51.563Z,0.90
2018-10-07T13:04:20.226Z,0.83
2018-10-07T13:06:48.705Z,0.80
2018-10-07T13:09:17.183Z,0.90
2018-10-07T13:11:45.666Z,0.70
2018-10-07T13:14:14.156Z,0.90
2018-10-07T13:16:42.751Z,1.00
2018-10-07T13:19:11.293Z,0.60
2018-10-07T13:21:39.848Z,0.70
2018-10-07T13:24:08.353Z,0.87
2018-10-07T13:26:36.966Z,0.70
2018-10-07T13:29:05.617Z,0.60
2018-10-07T13:31:34.147Z,0.50
2018-10-07T13:34:02.681Z,0.50
2018-10-07T13:36:31.462Z,0.50
2018-10-07T13:39:00.438Z,0.77
2018-10-07T13:41:28.876Z,0.70
2018-10-07T13:43:57.345Z,0.47
2018-10-07T13:46:25.871Z,0.60
2018-10-07T13:48:54.402Z,0.60
2018-10-07T13:51:22.853Z,0.70
2018-10-07T13:53:51.319Z,0.80
2018-10-07T13:56:19.967Z,0.93
2018-10-07T13:58:48.469Z,0.70
2018-10-07T14:01:16.968Z,0.93
2018-10-07T14:03:45.468Z,0.80
2018-10-07T14:06:13.953Z,0.90
2018-10-07T14:08:42.598Z,0.60
2018-10-07T14:11:11.717Z,0.80
2018-10-07T14:13:40.175Z,0.50
2018-10-07T14:16:08.683Z,1.07
2018-10-07T14:18:37.189Z,0.80
2018-10-07T14:21:05.759Z,0.80
2018-10-07T14:23:34.317Z,0.80
2018-10-07T14:26:03.490Z,0.90
2018-10-07T14:28:32.007Z,0.70
2018-10-07T14:31:00.492Z,0.70
2018-10-07T14:33:28.983Z,0.77
2018-10-07T14:35:57.569Z,0.73
2018-10-07T14:38:26.014Z,0.60
2018-10-07T14:40:55.102Z,0.67
2018-10-07T14:43:23.632Z,0.50
2018-10-07T14:45:52.193Z,0.87
2018-10-07T14:48:20.799Z,0.90
2018-10-07T14:50:49.348Z,0.90
2018-10-07T14:53:17.774Z,0.83
2018-10-07T14:55:46.368Z,1.27
2018-10-07T14:58:16.139Z,1.13
2018-10-07T15:00:44.641Z,0.97
2018-10-07T15:03:13.570Z,0.90
2018-10-07T15:05:42.168Z,0.73
2018-10-07T15:08:10.609Z,3.83
2018-10-07T15:10:39.118Z,4.03
2018-10-07T15:13:07.565Z,5.47
2018-10-07T15:15:36.095Z,2.23
2018-10-07T15:18:04.676Z,1.10
2018-10-07T15:20:33.260Z,1.30
2018-10-07T15:23:01.845Z,1.20
2018-10-07T15:25:30.433Z,3.20
2018-10-07T15:27:58.985Z,7.13
2018-10-07T15:30:27.471Z,8.13
2018-10-07T15:32:56.022Z,1.53
2018-10-07T15:35:24.693Z,1.27
2018-10-07T15:37:53.193Z,1.00
2018-10-07T15:40:21.677Z,0.90
2018-10-07T15:42:50.148Z,1.90
2018-10-07T15:45:18.722Z,1.13
2018-10-07T15:47:47.212Z,0.87
2018-10-07T15:50:15.681Z,0.80
2018-10-07T15:52:44.229Z,6.00
2018-10-07T15:55:12.712Z,1.60
2018-10-07T15:57:41.175Z,0.90
2018-10-07T16:00:10.746Z,0.90
2018-10-07T16:02:39.242Z,0.90
2018-10-07T16:05:08.102Z,0.97
2018-10-07T16:07:36.746Z,1.00
2018-10-07T16:10:05.298Z,0.80
2018-10-07T16:12:33.824Z,1.10
2018-10-07T16:15:02.317Z,1.00
2018-10-07T16:17:31.267Z,0.80
2018-10-07T16:19:59.870Z,0.70
2018-10-07T16:22:28.357Z,0.90
2018-10-07T16:24:56.949Z,0.93
2018-10-07T16:27:25.410Z,0.80
2018-10-07T16:29:53.882Z,0.77
2018-10-07T16:32:22.433Z,0.87
2018-10-07T16:34:51.081Z,0.90
2018-10-07T16:37:19.580Z,1.27
2018-10-07T16:39:48.229Z,0.70
2018-10-07T16:42:16.834Z,1.60
2018-10-07T16:44:45.293Z,2.00
2018-10-07T16:47:13.804Z,2.40
2018-10-07T16:49:42.304Z,4.77
2018-10-07T16:52:10.914Z,1.97
2018-10-07T16:54:39.876Z,3.70
2018-10-07T16:57:08.336Z,2.40
2018-10-07T16:59:37.753Z,1.40
2018-10-07T17:02:06.362Z,1.40
2018-10-07T17:04:34.866Z,1.93
2018-10-07T17:07:03.563Z,2.87
2018-10-07T17:09:32.040Z,1.57
2018-10-07T17:12:00.536Z,1.00
2018-10-07T17:14:29.105Z,1.13
2018-10-07T17:16:57.624Z,1.30
2018-10-07T17:19:26.269Z,1.30
2018-10-07T17:21:55.316Z,1.47
2018-10-07T17:24:23.953Z,1.30
2018-10-07T17:26:52.650Z,1.20
2018-10-07T17:29:21.202Z,1.07
2018-10-07T17:31:49.688Z,1.30
2018-10-07T17:34:18.818Z,1.50
2018-10-07T17:36:47.500Z,0.70
2018-10-07T17:39:16.723Z,0.73
2018-10-07T17:41:51.727Z,1.07
2018-10-07T17:44:20.848Z,1.93
2018-10-07T17:46:49.310Z,1.43
2018-10-07T17:49:17.828Z,1.57
2018-10-07T17:51:46.341Z,1.27
2018-10-07T17:54:14.798Z,1.60
2018-10-07T17:56:43.356Z,1.50
2018-10-07T17:59:11.985Z,1.23
2018-10-07T18:01:40.596Z,1.40
2018-10-07T18:04:09.077Z,1.30
2018-10-07T18:06:37.603Z,1.50
2018-10-07T18:09:07.779Z,1.60
2018-10-07T18:11:36.346Z,1.83
2018-10-07T18:14:04.998Z,1.40
2018-10-07T18:16:33.475Z,2.37
2018-10-07T18:19:02.001Z,2.07
2018-10-07T18:21:30.486Z,3.30
2018-10-07T18:23:58.962Z,2.20
2018-10-07T18:26:28.089Z,3.00
2018-10-07T18:28:56.647Z,2.63
2018-10-07T18:31:25.101Z,2.00
2018-10-07T18:33:53.599Z,1.90
2018-10-07T18:36:22.097Z,2.20
2018-10-07T18:38:50.870Z,2.00
2018-10-07T18:41:19.313Z,2.13
2018-10-07T18:43:47.768Z,3.67
2018-10-07T18:46:16.456Z,2.67
2018-10-07T18:48:45.096Z,2.90
2018-10-07T18:51:13.886Z,2.20
2018-10-07T18:53:42.447Z,2.30
2018-10-07T18:56:11.224Z,1.97
2018-10-07T18:58:40.517Z,3.13
2018-10-07T19:01:09.251Z,3.30
2018-10-07T19:03:38.423Z,2.80
2018-10-07T19:06:06.899Z,3.17
2018-10-07T19:08:35.460Z,4.73
2018-10-07T19:11:04.077Z,4.70
2018-10-07T19:13:32.892Z,4.90
2018-10-07T19:16:01.448Z,9.60
2018-10-07T19:18:29.875Z,7.00
2018-10-07T19:20:58.536Z,4.70
2018-10-07T19:23:26.942Z,5.07
2018-10-07T19:25:55.431Z,4.03
2018-10-07T19:28:23.884Z,4.27
2018-10-07T19:30:52.393Z,3.27
2018-10-07T19:33:21.072Z,3.57
2018-10-07T19:35:49.828Z,3.67
2018-10-07T19:38:18.333Z,4.73
2018-10-07T19:40:46.886Z,4.77
2018-10-07T19:43:15.415Z,6.67
2018-10-07T19:45:44.107Z,6.00
2018-10-07T19:48:12.749Z,6.97
2018-10-07T19:50:41.333Z,7.47
2018-10-07T19:53:10.083Z,7.03
2018-10-07T19:55:38.551Z,8.57
2018-10-07T19:58:07.069Z,7.10
2018-10-07T20:00:35.712Z,6.93
2018-10-07T20:03:04.380Z,6.87
2018-10-07T20:05:32.859Z,6.40
2018-10-07T20:08:01.383Z,5.83
2018-10-07T20:10:29.927Z,6.80
2018-10-07T20:12:58.509Z,6.40
2018-10-07T20:15:27.061Z,5.57
2018-10-07T20:17:55.978Z,5.37
2018-10-07T20:20:24.526Z,6.37
2018-10-07T20:22:53.113Z,6.73
2018-10-07T20:25:21.688Z,7.43
2018-10-07T20:27:50.980Z,7.57
2018-10-07T20:30:19.600Z,7.13
2018-10-07T20:32:48.145Z,6.30
2018-10-07T20:35:16.650Z,6.33
2018-10-07T20:37:45.510Z,6.40
2018-10-07T20:40:14.059Z,5.50
2018-10-07T20:42:42.816Z,5.07
2018-10-07T20:45:11.307Z,4.93
2018-10-07T20:47:39.942Z,6.27
2018-10-07T20:50:08.556Z,4.97
2018-10-07T20:52:38.171Z,4.87
2018-10-07T20:55:06.701Z,5.90
2018-10-07T20:57:35.145Z,6.50
2018-10-07T21:00:03.778Z,5.83
2018-10-07T21:02:32.262Z,5.77
2018-10-07T21:05:07.099Z,5.97
2018-10-07T21:07:35.650Z,5.70
2018-10-07T21:10:04.542Z,5.43
2018-10-07T21:12:32.992Z,5.10
2018-10-07T21:15:01.483Z,4.60
2018-10-07T21:17:30.019Z,4.80
2018-10-07T21:19:58.457Z,5.07
2018-10-07T21:22:26.992Z,4.80
2018-10-07T21:24:55.409Z,4.57
2018-10-07T21:27:23.924Z,4.87
2018-10-07T21:29:52.550Z,5.07
2018-10-07T21:32:20.973Z,4.90
2018-10-07T21:34:49.559Z,4.03
2018-10-07T21:37:18.196Z,4.10
2018-10-07T21:39:46.704Z,3.30
2018-10-07T21:42:15.243Z,3.53
2018-10-07T21:44:43.849Z,3.20
2018-10-07T21:47:12.282Z,3.37
2018-10-07T21:49:40.794Z,2.70
2018-10-07T21:52:09.287Z,3.03
2018-10-07T21:54:37.854Z,3.10
2018-10-07T21:57:06.469Z,3.40
2018-10-07T21:59:34.955Z,3.57
2018-10-07T22:02:03.473Z,3.43
2018-10-07T22:04:32.533Z,3.63
2018-10-07T22:07:01.243Z,3.53
2018-10-07T22:09:29.747Z,3.90
2018-10-07T22:11:58.227Z,3.20
2018-10-07T22:14:26.816Z,3.00
2018-10-07T22:16:55.377Z,4.07
2018-10-07T22:19:24.094Z,3.67
2018-10-07T22:21:52.616Z,4.00
2018-10-07T22:24:21.126Z,3.57
2018-10-07T22:26:49.607Z,3.50
2018-10-07T22:29:18.311Z,3.20
2018-10-07T22:31:46.831Z,3.37
2018-10-07T22:34:15.254Z,3.10
2018-10-07T22:36:43.720Z,3.37
2018-10-07T22:39:12.172Z,3.23
2018-10-07T22:41:40.634Z,3.27
2018-10-07T22:44:09.129Z,3.30
2018-10-07T22:46:37.573Z,3.10
2018-10-07T22:49:07.006Z,3.30
2018-10-07T22:51:35.598Z,3.07
2018-10-07T22:54:04.084Z,3.30
2018-10-07T22:56:32.618Z,3.27
2018-10-07T22:59:01.224Z,3.57
2018-10-07T23:01:29.791Z,3.17
2018-10-07T23:03:58.323Z,3.70
2018-10-07T23:06:26.916Z,4.00
2018-10-07T23:08:55.342Z,4.17
2018-10-07T23:11:23.796Z,4.37
2018-10-07T23:13:52.221Z,4.37
2018-10-07T23:16:20.724Z,3.87
2018-10-07T23:18:49.193Z,3.73
2018-10-07T23:21:17.608Z,4.40
2018-10-07T23:23:46.230Z,4.37
2018-10-07T23:26:14.682Z,4.07
2018-10-07T23:28:43.241Z,3.77
2018-10-07T23:31:11.764Z,3.70
2018-10-07T23:33:40.312Z,3.70
2018-10-07T23:36:08.865Z,4.03
2018-10-07T23:38:37.344Z,3.40
2018-10-07T23:41:05.843Z,3.43
2018-10-07T23:43:34.462Z,3.97
2018-10-07T23:46:02.929Z,3.83
2018-10-07T23:48:31.594Z,4.07
2018-10-07T23:51:00.060Z,3.70
2018-10-07T23:53:28.741Z,3.77
2018-10-07T23:55:57.302Z,4.47
